sensor_id;sensor_type;location;lat;lon;timestamp;pressure;altitude;pressure_sealevel;temperature;humidity
59055;BME280;44845;51.444;7.460;2023-05-22T00:02:04;99566.25;;;16.07;87.62
59055;BME280;44845;51.444;7.460;2023-05-22T00:04:30;99574.22;;;16.06;87.91
59055;BME280;44845;51.444;7.460;2023-05-22T00:06:58;99567.84;;;16.12;87.27
59055;BME280;44845;51.444;7.460;2023-05-22T00:09:24;99569.69;;;16.09;87.33
59055;BME280;44845;51.444;7.460;2023-05-22T00:11:50;99568.72;;;16.12;87.14
59055;BME280;44845;51.444;7.460;2023-05-22T00:14:16;99576.97;;;16.01;87.70
59055;BME280;44845;51.444;7.460;2023-05-22T00:16:41;99568.44;;;15.93;87.42
59055;BME280;44845;51.444;7.460;2023-05-22T00:19:07;99566.34;;;15.77;88.07
59055;BME280;44845;51.444;7.460;2023-05-22T00:21:40;99568.91;;;15.80;87.59
59055;BME280;44845;51.444;7.460;2023-05-22T00:24:06;99569.19;;;15.71;88.19
59055;BME280;44845;51.444;7.460;2023-05-22T00:26:32;99569.03;;;15.75;87.81
59055;BME280;44845;51.444;7.460;2023-05-22T00:28:57;99558.25;;;15.82;87.43
59055;BME280;44845;51.444;7.460;2023-05-22T00:31:23;99556.59;;;15.79;87.27
59055;BME280;44845;51.444;7.460;2023-05-22T00:33:48;99553.44;;;15.68;87.53
59055;BME280;44845;51.444;7.460;2023-05-22T00:36:13;99553.44;;;15.68;87.68
59055;BME280;44845;51.444;7.460;2023-05-22T00:38:39;99551.72;;;15.67;87.72
59055;BME280;44845;51.444;7.460;2023-05-22T00:41:05;99546.50;;;15.63;87.80
59055;BME280;44845;51.444;7.460;2023-05-22T00:43:31;99539.28;;;15.69;87.68
59055;BME280;44845;51.444;7.460;2023-05-22T00:45:57;99542.16;;;15.62;87.75
59055;BME280;44845;51.444;7.460;2023-05-22T00:48:23;99539.69;;;15.58;88.03
59055;BME280;44845;51.444;7.460;2023-05-22T00:50:49;99547.38;;;15.64;87.84
59055;BME280;44845;51.444;7.460;2023-05-22T00:53:16;99539.06;;;15.49;88.27
59055;BME280;44845;51.444;7.460;2023-05-22T00:55:43;99540.13;;;15.43;88.21
59055;BME280;44845;51.444;7.460;2023-05-22T00:58:13;99546.84;;;15.54;87.86
59055;BME280;44845;51.444;7.460;2023-05-22T01:00:39;99543.63;;;15.71;86.80
59055;BME280;44845;51.444;7.460;2023-05-22T01:03:06;99543.63;;;15.71;86.41
59055;BME280;44845;51.444;7.460;2023-05-22T01:05:34;99549.06;;;15.67;86.45
59055;BME280;44845;51.444;7.460;2023-05-22T01:07:59;99541.53;;;15.54;86.91
59055;BME280;44845;51.444;7.460;2023-05-22T01:10:26;99537.47;;;15.43;87.50
59055;BME280;44845;51.444;7.460;2023-05-22T01:13:33;99538.19;;;15.49;87.45
59055;BME280;44845;51.444;7.460;2023-05-22T01:16:10;99530.31;;;15.47;87.41
59055;BME280;44845;51.444;7.460;2023-05-22T01:21:22;99533.31;;;15.36;87.78
59055;BME280;44845;51.444;7.460;2023-05-22T01:26:29;99526.63;;;15.26;87.97
59055;BME280;44845;51.444;7.460;2023-05-22T01:31:54;99528.47;;;15.24;87.60
59055;BME280;44845;51.444;7.460;2023-05-22T01:34:21;99529.13;;;15.30;87.21
59055;BME280;44845;51.444;7.460;2023-05-22T01:36:47;99520.47;;;15.25;87.40
59055;BME280;44845;51.444;7.460;2023-05-22T01:39:15;99533.91;;;15.17;87.99
59055;BME280;44845;51.444;7.460;2023-05-22T01:41:41;99533.06;;;15.17;87.60
59055;BME280;44845;51.444;7.460;2023-05-22T01:44:06;99533.63;;;15.27;87.56
59055;BME280;44845;51.444;7.460;2023-05-22T01:46:32;99535.53;;;15.22;87.60
59055;BME280;44845;51.444;7.460;2023-05-22T01:48:58;99539.59;;;15.34;87.09
59055;BME280;44845;51.444;7.460;2023-05-22T01:51:36;99538.16;;;15.23;87.36
59055;BME280;44845;51.444;7.460;2023-05-22T01:54:18;99540.94;;;15.18;87.84
59055;BME280;44845;51.444;7.460;2023-05-22T01:56:51;99542.34;;;15.29;87.52
59055;BME280;44845;51.444;7.460;2023-05-22T01:59:27;99535.44;;;15.25;87.38
59055;BME280;44845;51.444;7.460;2023-05-22T02:01:59;99536.78;;;15.38;86.74
59055;BME280;44845;51.444;7.460;2023-05-22T02:04:28;99542.16;;;15.35;86.73
59055;BME280;44845;51.444;7.460;2023-05-22T02:06:56;99534.25;;;15.35;86.66
59055;BME280;44845;51.444;7.460;2023-05-22T02:09:27;99537.66;;;15.10;87.52
59055;BME280;44845;51.444;7.460;2023-05-22T02:11:53;99543.25;;;15.01;88.07
59055;BME280;44845;51.444;7.460;2023-05-22T02:14:19;99537.75;;;15.07;87.87
59055;BME280;44845;51.444;7.460;2023-05-22T02:16:45;99532.31;;;15.13;87.69
59055;BME280;44845;51.444;7.460;2023-05-22T02:19:12;99533.75;;;15.24;87.25
59055;BME280;44845;51.444;7.460;2023-05-22T02:21:37;99530.38;;;15.18;87.61
59055;BME280;44845;51.444;7.460;2023-05-22T02:24:03;99533.97;;;15.16;87.31
59055;BME280;44845;51.444;7.460;2023-05-22T02:26:28;99542.19;;;15.06;87.61
59055;BME280;44845;51.444;7.460;2023-05-22T02:28:54;99537.09;;;15.00;87.84
59055;BME280;44845;51.444;7.460;2023-05-22T02:31:19;99525.78;;;14.96;88.41
59055;BME280;44845;51.444;7.460;2023-05-22T02:33:45;99520.97;;;15.09;87.84
59055;BME280;44845;51.444;7.460;2023-05-22T02:36:10;99517.56;;;15.06;88.10
59055;BME280;44845;51.444;7.460;2023-05-22T02:38:38;99513.31;;;15.02;88.27
59055;BME280;44845;51.444;7.460;2023-05-22T02:41:03;99513.56;;;15.21;87.65
59055;BME280;44845;51.444;7.460;2023-05-22T02:43:29;99514.00;;;15.07;88.25
59055;BME280;44845;51.444;7.460;2023-05-22T02:45:54;99511.47;;;15.04;88.68
59055;BME280;44845;51.444;7.460;2023-05-22T02:48:20;99509.56;;;15.09;88.77
59055;BME280;44845;51.444;7.460;2023-05-22T02:50:45;99514.63;;;15.15;88.85
59055;BME280;44845;51.444;7.460;2023-05-22T02:53:13;99515.34;;;15.20;88.58
59055;BME280;44845;51.444;7.460;2023-05-22T02:55:40;99507.09;;;15.30;88.17
59055;BME280;44845;51.444;7.460;2023-05-22T02:58:06;99503.56;;;15.31;88.09
59055;BME280;44845;51.444;7.460;2023-05-22T03:00:38;99505.28;;;15.32;88.14
59055;BME280;44845;51.444;7.460;2023-05-22T03:03:04;99498.16;;;15.34;88.24
59055;BME280;44845;51.444;7.460;2023-05-22T03:05:29;99496.84;;;15.20;88.50
59055;BME280;44845;51.444;7.460;2023-05-22T03:07:56;99498.38;;;15.28;88.36
59055;BME280;44845;51.444;7.460;2023-05-22T03:10:22;99491.34;;;15.27;88.55
59055;BME280;44845;51.444;7.460;2023-05-22T03:12:47;99496.53;;;15.30;88.80
59055;BME280;44845;51.444;7.460;2023-05-22T03:15:13;99503.66;;;15.28;88.62
59055;BME280;44845;51.444;7.460;2023-05-22T03:17:38;99493.09;;;15.28;88.27
59055;BME280;44845;51.444;7.460;2023-05-22T03:20:04;99502.59;;;15.34;88.07
59055;BME280;44845;51.444;7.460;2023-05-22T03:22:30;99497.59;;;15.24;88.25
59055;BME280;44845;51.444;7.460;2023-05-22T03:24:56;99495.13;;;15.19;88.39
59055;BME280;44845;51.444;7.460;2023-05-22T03:27:21;99498.88;;;15.12;88.68
59055;BME280;44845;51.444;7.460;2023-05-22T03:29:47;99497.16;;;15.11;88.76
59055;BME280;44845;51.444;7.460;2023-05-22T03:32:12;99487.34;;;15.15;88.61
59055;BME280;44845;51.444;7.460;2023-05-22T03:34:37;99484.84;;;15.10;88.73
59055;BME280;44845;51.444;7.460;2023-05-22T03:37:03;99483.69;;;15.19;88.11
59055;BME280;44845;51.444;7.460;2023-05-22T03:39:28;99493.59;;;15.12;88.49
59055;BME280;44845;51.444;7.460;2023-05-22T03:41:54;99489.75;;;15.23;87.98
59055;BME280;44845;51.444;7.460;2023-05-22T03:44:21;99489.75;;;15.23;88.06
59055;BME280;44845;51.444;7.460;2023-05-22T03:46:47;99491.56;;;15.20;88.15
59055;BME280;44845;51.444;7.460;2023-05-22T03:49:12;99500.31;;;15.23;88.24
59055;BME280;44845;51.444;7.460;2023-05-22T03:51:37;99496.53;;;15.30;87.82
59055;BME280;44845;51.444;7.460;2023-05-22T03:54:03;99493.00;;;15.31;87.66
59055;BME280;44845;51.444;7.460;2023-05-22T03:56:28;99490.91;;;15.14;87.90
59055;BME280;44845;51.444;7.460;2023-05-22T03:58:53;99493.81;;;15.06;88.22
59055;BME280;44845;51.444;7.460;2023-05-22T04:01:20;99492.72;;;15.12;88.04
59055;BME280;44845;51.444;7.460;2023-05-22T04:03:46;99490.13;;;15.10;87.95
59055;BME280;44845;51.444;7.460;2023-05-22T04:06:11;99486.69;;;15.08;88.46
59055;BME280;44845;51.444;7.460;2023-05-22T04:08:37;99484.03;;;15.08;88.74
59055;BME280;44845;51.444;7.460;2023-05-22T04:11:03;99485.63;;;15.14;nan
59055;BME280;44845;51.444;7.460;2023-05-22T04:13:30;99488.22;;;15.15;88.74
59055;BME280;44845;51.444;7.460;2023-05-22T04:15:55;99486.28;;;15.20;88.69
59055;BME280;44845;51.444;7.460;2023-05-22T04:18:21;99482.84;;;15.18;88.66
59055;BME280;44845;51.444;7.460;2023-05-22T04:20:46;99492.22;;;15.27;88.39
59055;BME280;44845;51.444;7.460;2023-05-22T04:23:12;99488.31;;;15.12;89.06
59055;BME280;44845;51.444;7.460;2023-05-22T04:25:37;99491.34;;;15.27;88.78
59055;BME280;44845;51.444;7.460;2023-05-22T04:28:03;99489.75;;;15.23;88.40
59055;BME280;44845;51.444;7.460;2023-05-22T04:30:31;99491.09;;;15.35;88.33
59055;BME280;44845;51.444;7.460;2023-05-22T04:33:02;99491.91;;;15.37;88.01
59055;BME280;44845;51.444;7.460;2023-05-22T04:35:27;99491.25;;;15.30;88.16
59055;BME280;44845;51.444;7.460;2023-05-22T04:37:54;99492.78;;;15.37;87.79
59055;BME280;44845;51.444;7.460;2023-05-22T04:40:20;99488.06;;;15.20;88.39
59055;BME280;44845;51.444;7.460;2023-05-22T04:42:45;99494.88;;;15.27;88.52
59055;BME280;44845;51.444;7.460;2023-05-22T04:45:10;99494.13;;;15.24;88.58
59055;BME280;44845;51.444;7.460;2023-05-22T04:47:38;99491.03;;;15.36;88.38
59055;BME280;44845;51.444;7.460;2023-05-22T04:50:06;99491.91;;;15.37;88.21
59055;BME280;44845;51.444;7.460;2023-05-22T04:52:31;99489.91;;;15.43;88.33
59055;BME280;44845;51.444;7.460;2023-05-22T04:54:57;99482.75;;;15.47;87.86
59055;BME280;44845;51.444;7.460;2023-05-22T04:57:22;99488.16;;;15.44;88.37
59055;BME280;44845;51.444;7.460;2023-05-22T04:59:49;99485.31;;;15.50;88.38
59055;BME280;44845;51.444;7.460;2023-05-22T05:02:16;99483.31;;;15.57;88.13
59055;BME280;44845;51.444;7.460;2023-05-22T05:04:41;99483.31;;;15.57;88.19
59055;BME280;44845;51.444;7.460;2023-05-22T05:07:07;99471.78;;;15.60;88.24
59055;BME280;44845;51.444;7.460;2023-05-22T05:09:33;99474.41;;;15.60;88.15
59055;BME280;44845;51.444;7.460;2023-05-22T05:11:58;99470.81;;;15.62;88.14
59055;BME280;44845;51.444;7.460;2023-05-22T05:14:24;99474.16;;;15.68;88.17
59055;BME280;44845;51.444;7.460;2023-05-22T05:16:50;99472.41;;;15.67;88.40
59055;BME280;44845;51.444;7.460;2023-05-22T05:19:18;99471.38;;;15.71;88.06
59055;BME280;44845;51.444;7.460;2023-05-22T05:21:48;99464.16;;;15.76;88.15
59055;BME280;44845;51.444;7.460;2023-05-22T05:24:14;99470.47;;;15.72;88.15
59055;BME280;44845;51.444;7.460;2023-05-22T05:26:40;99467.59;;;15.78;88.22
59055;BME280;44845;51.444;7.460;2023-05-22T05:29:05;99477.25;;;15.79;88.22
59055;BME280;44845;51.444;7.460;2023-05-22T05:31:30;99472.84;;;15.80;88.62
59055;BME280;44845;51.444;7.460;2023-05-22T05:33:57;99472.75;;;15.83;88.80
59055;BME280;44845;51.444;7.460;2023-05-22T05:36:23;99475.22;;;15.87;88.72
59055;BME280;44845;51.444;7.460;2023-05-22T05:38:48;99472.41;;;15.92;88.89
59055;BME280;44845;51.444;7.460;2023-05-22T05:41:13;99473.25;;;15.93;88.88
59055;BME280;44845;51.444;7.460;2023-05-22T05:43:39;99469.59;;;15.97;88.59
59055;BME280;44845;51.444;7.460;2023-05-22T05:46:04;99478.22;;;16.02;88.60
59055;BME280;44845;51.444;7.460;2023-05-22T05:48:30;99476.25;;;16.09;88.90
59055;BME280;44845;51.444;7.460;2023-05-22T05:50:55;99476.00;;;16.15;88.75
59055;BME280;44845;51.444;7.460;2023-05-22T05:53:21;99479.25;;;16.24;88.97
59055;BME280;44845;51.444;7.460;2023-05-22T05:55:46;99480.81;;;16.29;88.88
59055;BME280;44845;51.444;7.460;2023-05-22T05:58:12;99487.69;;;16.34;88.86
59055;BME280;44845;51.444;7.460;2023-05-22T06:00:39;99478.59;;;16.41;88.48
59055;BME280;44845;51.444;7.460;2023-05-22T06:03:06;99480.19;;;16.45;89.34
59055;BME280;44845;51.444;7.460;2023-05-22T06:05:31;99481.78;;;16.49;88.92
59055;BME280;44845;51.444;7.460;2023-05-22T06:07:57;99485.09;;;16.56;88.88
59055;BME280;44845;51.444;7.460;2023-05-22T06:10:22;99494.63;;;16.60;88.29
59055;BME280;44845;51.444;7.460;2023-05-22T06:12:48;99499.66;;;16.66;88.42
59055;BME280;44845;51.444;7.460;2023-05-22T06:15:13;99508.38;;;16.70;88.35
59055;BME280;44845;51.444;7.460;2023-05-22T06:17:39;99506.53;;;16.72;88.60
59055;BME280;44845;51.444;7.460;2023-05-22T06:20:05;99511.75;;;16.74;88.19
59055;BME280;44845;51.444;7.460;2023-05-22T06:22:31;99511.53;;;16.80;87.85
59055;BME280;44845;51.444;7.460;2023-05-22T06:24:56;99507.03;;;16.82;87.11
59055;BME280;44845;51.444;7.460;2023-05-22T06:27:22;99512.38;;;16.81;87.30
59055;BME280;44845;51.444;7.460;2023-05-22T06:29:49;99510.53;;;16.83;87.73
59055;BME280;44845;51.444;7.460;2023-05-22T06:32:15;99508.69;;;16.85;86.83
59055;BME280;44845;51.444;7.460;2023-05-22T06:34:41;99517.69;;;16.81;87.09
59055;BME280;44845;51.444;7.460;2023-05-22T06:37:08;99514.09;;;16.82;86.97
59055;BME280;44845;51.444;7.460;2023-05-22T06:39:34;99505.13;;;16.86;87.33
59055;BME280;44845;51.444;7.460;2023-05-22T06:41:59;99512.75;;;16.94;87.12
59055;BME280;44845;51.444;7.460;2023-05-22T06:44:25;99515.09;;;17.02;87.14
59055;BME280;44845;51.444;7.460;2023-05-22T06:46:51;99511.94;;;17.14;86.41
59055;BME280;44845;51.444;7.460;2023-05-22T06:49:17;99518.81;;;17.20;86.11
59055;BME280;44845;51.444;7.460;2023-05-22T06:51:43;99513.84;;;17.33;85.65
59055;BME280;44845;51.444;7.460;2023-05-22T06:54:10;99524.22;;;17.39;85.63
59055;BME280;44845;51.444;7.460;2023-05-22T06:56:38;99522.38;;;17.41;85.13
59055;BME280;44845;51.444;7.460;2023-05-22T06:59:03;99518.91;;;17.39;84.99
59055;BME280;44845;51.444;7.460;2023-05-22T07:01:28;99514.34;;;17.43;85.15
59055;BME280;44845;51.444;7.460;2023-05-22T07:03:57;99511.69;;;17.43;85.17
59055;BME280;44845;51.444;7.460;2023-05-22T07:06:22;99525.69;;;17.47;85.35
59055;BME280;44845;51.444;7.460;2023-05-22T07:08:52;99525.09;;;17.40;85.55
59055;BME280;44845;51.444;7.460;2023-05-22T07:11:17;99528.66;;;17.39;86.02
59055;BME280;44845;51.444;7.460;2023-05-22T07:13:43;99520.38;;;17.47;86.12
59055;BME280;44845;51.444;7.460;2023-05-22T07:16:08;99525.50;;;17.51;85.50
59055;BME280;44845;51.444;7.460;2023-05-22T07:18:33;99523.63;;;17.53;85.22
59055;BME280;44845;51.444;7.460;2023-05-22T07:20:59;99535.09;;;17.54;85.85
59055;BME280;44845;51.444;7.460;2023-05-22T07:23:24;99533.91;;;17.61;85.25
59055;BME280;44845;51.444;7.460;2023-05-22T07:25:50;99537.63;;;17.57;85.40
59055;BME280;44845;51.444;7.460;2023-05-22T07:28:15;99530.00;;;17.49;85.97
59055;BME280;44845;51.444;7.460;2023-05-22T07:30:40;99536.16;;;17.50;85.70
59055;BME280;44845;51.444;7.460;2023-05-22T07:33:06;99530.47;;;17.59;85.98
59055;BME280;44845;51.444;7.460;2023-05-22T07:35:31;99533.41;;;17.74;85.95
59055;BME280;44845;51.444;7.460;2023-05-22T07:37:57;99534.66;;;17.86;85.17
59055;BME280;44845;51.444;7.460;2023-05-22T07:40:22;99537.19;;;17.89;85.42
59055;BME280;44845;51.444;7.460;2023-05-22T07:42:48;99527.81;;;18.01;85.25
59055;BME280;44845;51.444;7.460;2023-05-22T07:45:13;99532.19;;;18.02;85.25
59055;BME280;44845;51.444;7.460;2023-05-22T07:47:38;99534.91;;;18.00;85.62
59055;BME280;44845;51.444;7.460;2023-05-22T07:50:04;99537.69;;;17.97;85.15
59055;BME280;44845;51.444;7.460;2023-05-22T07:52:30;99540.88;;;18.06;85.01
59055;BME280;44845;51.444;7.460;2023-05-22T07:54:56;99539.22;;;18.03;85.71
59055;BME280;44845;51.444;7.460;2023-05-22T07:57:21;99546.22;;;18.04;85.49
59055;BME280;44845;51.444;7.460;2023-05-22T07:59:47;99542.53;;;18.08;85.86
59055;BME280;44845;51.444;7.460;2023-05-22T08:02:13;99548.16;;;18.21;85.31
59055;BME280;44845;51.444;7.460;2023-05-22T08:04:38;99553.44;;;18.23;85.56
59055;BME280;44845;51.444;7.460;2023-05-22T08:07:04;99546.63;;;18.37;85.24
59055;BME280;44845;51.444;7.460;2023-05-22T08:09:30;99551.78;;;18.40;84.84
59055;BME280;44845;51.444;7.460;2023-05-22T08:11:55;99551.22;;;18.33;84.33
59055;BME280;44845;51.444;7.460;2023-05-22T08:14:21;99556.75;;;18.28;84.63
59055;BME280;44845;51.444;7.460;2023-05-22T08:16:46;99556.59;;;18.31;84.08
59055;BME280;44845;51.444;7.460;2023-05-22T08:19:12;99556.31;;;18.17;84.91
59055;BME280;44845;51.444;7.460;2023-05-22T08:21:37;99555.50;;;18.15;85.01
59055;BME280;44845;51.444;7.460;2023-05-22T08:24:03;99549.03;;;18.22;85.29
59055;BME280;44845;51.444;7.460;2023-05-22T08:26:29;99554.44;;;18.19;84.99
59055;BME280;44845;51.444;7.460;2023-05-22T08:28:54;99554.34;;;18.22;84.96
59055;BME280;44845;51.444;7.460;2023-05-22T08:31:20;99559.41;;;18.28;85.40
59055;BME280;44845;51.444;7.460;2023-05-22T08:33:45;99544.63;;;18.42;85.17
59055;BME280;44845;51.444;7.460;2023-05-22T08:36:10;99551.66;;;18.43;85.14
59055;BME280;44845;51.444;7.460;2023-05-22T08:38:37;99549.94;;;18.42;84.78
59055;BME280;44845;51.444;7.460;2023-05-22T08:41:03;99558.69;;;18.44;85.07
59055;BME280;44845;51.444;7.460;2023-05-22T08:43:30;99553.91;;;18.52;85.13
59055;BME280;44845;51.444;7.460;2023-05-22T08:46:02;99555.47;;;18.56;85.41
59055;BME280;44845;51.444;7.460;2023-05-22T08:48:31;99546.78;;;18.53;84.74
59055;BME280;44845;51.444;7.460;2023-05-22T08:51:02;99550.28;;;18.53;85.98
59055;BME280;44845;51.444;7.460;2023-05-22T08:53:28;99549.06;;;18.61;86.47
59055;BME280;44845;51.444;7.460;2023-05-22T08:55:55;99546.38;;;18.62;85.73
59055;BME280;44845;51.444;7.460;2023-05-22T08:58:21;99554.38;;;18.61;85.55
59055;BME280;44845;51.444;7.460;2023-05-22T09:00:47;99547.16;;;18.64;86.00
59055;BME280;44845;51.444;7.460;2023-05-22T09:03:14;99542.53;;;18.68;84.29
59055;BME280;44845;51.444;7.460;2023-05-22T09:05:39;99542.91;;;18.79;84.91
59055;BME280;44845;51.444;7.460;2023-05-22T09:08:08;99546.00;;;18.89;85.67
59055;BME280;44845;51.444;7.460;2023-05-22T09:10:34;99546.56;;;18.96;84.79
59055;BME280;44845;51.444;7.460;2023-05-22T09:13:07;99552.50;;;19.01;81.63
59055;BME280;44845;51.444;7.460;2023-05-22T09:15:34;99549.72;;;19.05;80.39
59055;BME280;44845;51.444;7.460;2023-05-22T09:18:02;99543.00;;;19.15;79.14
59055;BME280;44845;51.444;7.460;2023-05-22T09:20:28;99551.41;;;19.25;79.41
59055;BME280;44845;51.444;7.460;2023-05-22T09:22:53;99547.84;;;19.26;81.18
59055;BME280;44845;51.444;7.460;2023-05-22T09:25:20;99547.59;;;19.31;81.15
59055;BME280;44845;51.444;7.460;2023-05-22T09:27:48;99552.28;;;19.26;83.04
59055;BME280;44845;51.444;7.460;2023-05-22T09:30:15;99546.03;;;19.27;81.51
59055;BME280;44845;51.444;7.460;2023-05-22T09:32:41;99543.63;;;19.40;78.03
59055;BME280;44845;51.444;7.460;2023-05-22T09:35:07;99543.69;;;19.38;80.26
59055;BME280;44845;51.444;7.460;2023-05-22T09:37:33;99544.56;;;19.39;81.66
59055;BME280;44845;51.444;7.460;2023-05-22T09:40:06;99546.38;;;19.38;80.32
59055;BME280;44845;51.444;7.460;2023-05-22T09:42:35;99552.38;;;19.42;80.53
59055;BME280;44845;51.444;7.460;2023-05-22T09:45:04;99547.88;;;19.44;80.27
59055;BME280;44845;51.444;7.460;2023-05-22T09:47:31;99547.06;;;19.42;80.46
59055;BME280;44845;51.444;7.460;2023-05-22T09:50:01;99548.66;;;19.46;79.41
59055;BME280;44845;51.444;7.460;2023-05-22T09:52:34;99546.69;;;19.50;79.63
59055;BME280;44845;51.444;7.460;2023-05-22T09:55:06;99553.59;;;19.54;80.03
59055;BME280;44845;51.444;7.460;2023-05-22T09:57:42;99550.75;;;19.57;80.82
59055;BME280;44845;51.444;7.460;2023-05-22T10:00:13;99544.03;;;19.67;78.74
59055;BME280;44845;51.444;7.460;2023-05-22T10:02:50;99548.19;;;19.73;79.16
59055;BME280;44845;51.444;7.460;2023-05-22T10:05:17;99545.59;;;19.72;80.26
59055;BME280;44845;51.444;7.460;2023-05-22T10:07:50;99547.31;;;19.73;79.51
59055;BME280;44845;51.444;7.460;2023-05-22T10:10:23;99548.19;;;19.73;79.69
59055;BME280;44845;51.444;7.460;2023-05-22T10:12:55;99546.22;;;19.77;78.45
59055;BME280;44845;51.444;7.460;2023-05-22T10:15:21;99551.38;;;19.98;75.22
59055;BME280;44845;51.444;7.460;2023-05-22T10:17:48;99551.88;;;19.88;77.42
59055;BME280;44845;51.444;7.460;2023-05-22T10:20:17;99550.03;;;19.89;78.95
59055;BME280;44845;51.444;7.460;2023-05-22T10:22:45;99543.41;;;19.98;75.39
59055;BME280;44845;51.444;7.460;2023-05-22T10:25:11;99544.31;;;19.97;76.22
59055;BME280;44845;51.444;7.460;2023-05-22T10:27:38;99545.88;;;20.01;73.78
59055;BME280;44845;51.444;7.460;2023-05-22T10:30:21;99554.47;;;20.06;77.90
59055;BME280;44845;51.444;7.460;2023-05-22T10:35:39;99550.19;;;20.03;78.41
59055;BME280;44845;51.444;7.460;2023-05-22T10:40:32;99537.88;;;20.01;78.21
59055;BME280;44845;51.444;7.460;2023-05-22T10:43:00;99547.59;;;20.02;78.59
59055;BME280;44845;51.444;7.460;2023-05-22T10:45:26;99542.13;;;20.05;77.01
59055;BME280;44845;51.444;7.460;2023-05-22T10:50:28;99530.88;;;20.18;76.79
59055;BME280;44845;51.444;7.460;2023-05-22T10:53:26;99535.19;;;20.36;72.83
59055;BME280;44845;51.444;7.460;2023-05-22T10:55:56;99531.41;;;20.41;74.50
59055;BME280;44845;51.444;7.460;2023-05-22T10:58:26;99535.47;;;20.48;76.47
59055;BME280;44845;51.444;7.460;2023-05-22T11:01:15;99532.38;;;20.56;74.15
59055;BME280;44845;51.444;7.460;2023-05-22T11:06:51;99532.03;;;20.62;77.75
59055;BME280;44845;51.444;7.460;2023-05-22T11:09:34;99533.50;;;20.68;78.00
59055;BME280;44845;51.444;7.460;2023-05-22T11:15:04;99529.72;;;20.72;77.78
59055;BME280;44845;51.444;7.460;2023-05-22T11:17:32;99528.09;;;20.69;78.58
59055;BME280;44845;51.444;7.460;2023-05-22T11:20:19;99522.69;;;20.71;77.45
59055;BME280;44845;51.444;7.460;2023-05-22T11:22:58;99525.19;;;20.74;78.17
59055;BME280;44845;51.444;7.460;2023-05-22T11:25:23;99524.38;;;20.72;78.39
59055;BME280;44845;51.444;7.460;2023-05-22T11:27:52;99522.69;;;20.71;78.12
59055;BME280;44845;51.444;7.460;2023-05-22T11:30:19;99526.63;;;20.64;78.26
59055;BME280;44845;51.444;7.460;2023-05-22T11:32:45;99518.03;;;20.58;77.23
59055;BME280;44845;51.444;7.460;2023-05-22T11:35:16;99517.88;;;20.62;75.70
59055;BME280;44845;51.444;7.460;2023-05-22T11:37:42;99518.53;;;20.65;77.75
59055;BME280;44845;51.444;7.460;2023-05-22T11:40:08;99512.53;;;20.62;78.07
59055;BME280;44845;51.444;7.460;2023-05-22T11:42:35;99519.06;;;20.56;77.93
59055;BME280;44845;51.444;7.460;2023-05-22T11:45:01;99520.25;;;20.50;77.47
59055;BME280;44845;51.444;7.460;2023-05-22T11:47:27;99524.03;;;20.46;75.10
59055;BME280;44845;51.444;7.460;2023-05-22T11:49:53;99518.72;;;20.46;73.74
59055;BME280;44845;51.444;7.460;2023-05-22T11:52:22;99508.91;;;20.46;75.42
59055;BME280;44845;51.444;7.460;2023-05-22T11:54:50;99505.13;;;20.51;75.83
59055;BME280;44845;51.444;7.460;2023-05-22T11:57:15;99499.91;;;20.49;76.83
59055;BME280;44845;51.444;7.460;2023-05-22T11:59:47;99498.88;;;20.52;77.83
59055;BME280;44845;51.444;7.460;2023-05-22T12:02:12;99499.81;;;20.51;78.70
59055;BME280;44845;51.444;7.460;2023-05-22T12:04:38;99499.91;;;20.49;77.30
59055;BME280;44845;51.444;7.460;2023-05-22T12:07:04;99496.78;;;20.41;77.28
59055;BME280;44845;51.444;7.460;2023-05-22T12:09:29;99501.97;;;20.44;77.65
59055;BME280;44845;51.444;7.460;2023-05-22T12:11:55;99491.16;;;20.47;76.44
59055;BME280;44845;51.444;7.460;2023-05-22T12:14:28;99499.50;;;20.57;76.26
59055;BME280;44845;51.444;7.460;2023-05-22T12:16:58;99493.13;;;20.59;77.20
59055;BME280;44845;51.444;7.460;2023-05-22T12:19:24;99492.41;;;20.72;76.42
59055;BME280;44845;51.444;7.460;2023-05-22T12:21:50;99488.91;;;20.88;72.73
59055;BME280;44845;51.444;7.460;2023-05-22T12:24:16;99486.06;;;20.91;73.65
59055;BME280;44845;51.444;7.460;2023-05-22T12:26:54;99490.34;;;20.93;71.73
59055;BME280;44845;51.444;7.460;2023-05-22T12:29:22;99489.41;;;20.95;72.99
59055;BME280;44845;51.444;7.460;2023-05-22T12:31:48;99487.59;;;20.95;76.11
59055;BME280;44845;51.444;7.460;2023-05-22T12:34:15;99489.31;;;20.96;75.95
59055;BME280;44845;51.444;7.460;2023-05-22T12:36:44;99492.94;;;20.95;75.21
59055;BME280;44845;51.444;7.460;2023-05-22T12:39:19;99500.16;;;20.93;74.43
59055;BME280;44845;51.444;7.460;2023-05-22T12:41:46;99499.22;;;20.94;73.46
59055;BME280;44845;51.444;7.460;2023-05-22T12:44:14;99501.00;;;20.93;71.75
59055;BME280;44845;51.444;7.460;2023-05-22T12:46:39;99498.09;;;20.98;73.49
59055;BME280;44845;51.444;7.460;2023-05-22T12:49:05;99503.84;;;21.07;73.58
59055;BME280;44845;51.444;7.460;2023-05-22T12:51:31;99501.00;;;21.10;75.00
59055;BME280;44845;51.444;7.460;2023-05-22T12:54:05;99497.47;;;21.09;74.88
59055;BME280;44845;51.444;7.460;2023-05-22T12:56:31;99503.78;;;21.08;72.32
59055;BME280;44845;51.444;7.460;2023-05-22T12:58:57;99509.97;;;21.09;73.68
59055;BME280;44845;51.444;7.460;2023-05-22T13:01:23;99509.19;;;21.07;74.36
59055;BME280;44845;51.444;7.460;2023-05-22T13:03:50;99506.34;;;21.10;73.63
59055;BME280;44845;51.444;7.460;2023-05-22T13:06:15;99513.22;;;21.14;73.85
59055;BME280;44845;51.444;7.460;2023-05-22T13:08:41;99510.69;;;21.27;69.73
59055;BME280;44845;51.444;7.460;2023-05-22T13:11:06;99513.97;;;21.32;72.18
59055;BME280;44845;51.444;7.460;2023-05-22T13:13:32;99508.72;;;21.31;71.55
59055;BME280;44845;51.444;7.460;2023-05-22T13:15:57;99516.25;;;21.38;71.97
59055;BME280;44845;51.444;7.460;2023-05-22T13:18:23;99515.59;;;21.35;72.46
59055;BME280;44845;51.444;7.460;2023-05-22T13:20:48;99509.03;;;21.41;73.47
59055;BME280;44845;51.444;7.460;2023-05-22T13:23:13;99507.03;;;21.44;73.04